Nearby METAR Reports

 

ENCN - Kristiansand/Kje, Norway
Distance from station: Pn 17km
Aktualizacja: 22/08/2019 19:20
Częściowe zachmurzenie
Częściowe zachmurzenie
 Wiatr z PdZd
Wiatr: PdZd 17 km/h
Temperatura: 16°C
Punkt Rosy: 14°C
Wilgotność: 88%
Ciśnienie: 1018 hPa
Clouds: Częściowe zachmurzenie
Visibility: 10 km
Cloud details: Few Clouds 610 m
Częściowe zachmurzenie 1067 m
2019/08/22 17:20 ENCN 221720Z 23009KT 9999 FEW020 SCT035 16/14 Q1018
EKSN - Sindal Airport, Denmark
Distance from station: WsPdWs 145km
Aktualizacja: 22/08/2019 15:50
NOT Current
Lekki deszcz, Showers, Przeważnie pochmurno
Lekki deszcz, Showers, Przeważnie pochmurno
 Wiatr z PdPdZd
Wiatr: PdPdZd 22 km/h
Temperatura: 17°C
Punkt Rosy: 12°C
Wilgotność: 73%
Ciśnienie: 1021 hPa
Podsumowanie: Lekki deszcz, Showers
Clouds: Przeważnie pochmurno
Visibility: 10 km
Cloud details: Few Clouds 610 m
Przeważnie pochmurno 1372 m
2019/08/22 13:50 EKSN 221350Z 20012KT 9999 -SHRA FEW020 BKN045 17/12 Q1021
 
EKYT - Alborg, Denmark
Distance from station: PdWs 153km
Aktualizacja: 22/08/2019 19:20
Bezchmurnie
Bezchmurnie
 Wiatr z PdZd
Wiatr: PdZd 22 km/h
Temperatura: 16°C
Punkt Rosy: 13°C
Wilgotność: 83%
Ciśnienie: 1021 hPa
Clouds: Bezchmurnie
Visibility: 10 km
2019/08/22 17:20 EKYT 221720Z AUTO 23012KT 9999 NCD 16/13 Q1021
ENSN - Skien/Geiterygge, Norway
Distance from station: PnWs 153km
Aktualizacja: 09/11/2015 09:50
NOT Current
Bezchmurnie
Bezchmurnie
 Wiatr z PdPdZd
Wiatr: PdPdZd 19 km/h, Poryw: 41 km/h
Temperatura: 7°C
Wind Chill: 4°C
Punkt Rosy: 3°C
Wilgotność: 76%
Ciśnienie: 1000 hPa
Podsumowanie: Bezchmurnie
Visibility: greater than 10 km
2015/11/09 08:50 ENSN 090850Z 20010G22KT 150V240 CAVOK 07/03 Q1000
 
ENZV - Stavanger/Sola(A, Norway
Distance from station: PnZd 166km
Aktualizacja: 22/08/2019 19:20
Częściowe zachmurzenie
Częściowe zachmurzenie
 Wiatr z Pd
Wiatr: Pd 19 km/h
Temperatura: 16°C
Punkt Rosy: 11°C
Wilgotność: 72%
Ciśnienie: 1016 hPa
Clouds: Częściowe zachmurzenie
Visibility: 10 km
Cloud details: Few Clouds 823 m
Częściowe zachmurzenie 1372 m
2019/08/22 17:20 ENZV 221720Z 17010KT 9999 FEW027 SCT045 16/11 Q1016 NOSIG
ENNO - Notodden, Norway
Distance from station: PnPnZd 182km
Aktualizacja: 22/08/2019 18:50
Lekki deszcz, Przeważnie pochmurno
Lekki deszcz, Przeważnie pochmurno
 Wiatr z PdWs
Wiatr: PdWs 6 km/h
Temperatura: 15°C
Punkt Rosy: 14°C
Wilgotność: 94%
Ciśnienie: 1015 hPa
Podsumowanie: Lekki deszcz
Clouds: Przeważnie pochmurno
Visibility: 10 km
Cloud details: Few Clouds 213 m
Częściowe zachmurzenie 762 m
Przeważnie pochmurno 1219 m
2019/08/22 16:50 ENNO 221650Z 14003KT 080V190 9999 -RA FEW007 SCT025 BKN040 15/14 Q1015
 
ENTO - Torp (civ/Nor-Af, Norway
Distance from station: PnWs 183km
Aktualizacja: 22/08/2019 19:20
Częściowe zachmurzenie
Częściowe zachmurzenie
 Wiatr z PdPdZd
Wiatr: PdPdZd 28 km/h
Temperatura: 15°C
Punkt Rosy: 12°C
Wilgotność: 82%
Ciśnienie: 1017 hPa
Clouds: Częściowe zachmurzenie
Visibility: 10 km
Cloud details: Częściowe zachmurzenie 457 m
2019/08/22 17:20 ENTO 221720Z 21015KT 9999 SCT015 15/12 Q1017 NOSIG
EKKA - Karup (dan-Afb), Denmark
Distance from station: PdPdWs 209km
Aktualizacja: 22/08/2019 19:20
Lekki deszcz, Przeważnie pochmurno
Lekki deszcz, Przeważnie pochmurno
 Wiatr z PdZd
Wiatr: PdZd 13 km/h
Temperatura: 16°C
Punkt Rosy: 13°C
Wilgotność: 83%
Ciśnienie: 1022 hPa
Podsumowanie: Lekki deszcz
Clouds: Przeważnie pochmurno
Visibility: 10 km
Cloud details: Przeważnie pochmurno 2256 m
2019/08/22 17:20 EKKA 221720Z AUTO 22007KT 9999 -RA BKN074/// 16/13 Q1022
 
ENHD - Haugesund/Karmoy, Norway
Distance from station: PnZd 216km
Aktualizacja: 22/08/2019 19:20
Częściowe zachmurzenie
Częściowe zachmurzenie
 Wiatr z Pd
Wiatr: Pd 26 km/h
Temperatura: 16°C
Punkt Rosy: 10°C
Wilgotność: 68%
Ciśnienie: 1015 hPa
Clouds: Częściowe zachmurzenie
Visibility: 10 km
Cloud details: Few Clouds 701 m
Częściowe zachmurzenie 1067 m
2019/08/22 17:20 ENHD 221720Z 19014KT 9999 FEW023 SCT035 16/10 Q1015
ENRY - Rygge (nor-Afb), Norway
Distance from station: PnWs 216km
Aktualizacja: 22/08/2019 19:20
Przeważnie pochmurno
Przeważnie pochmurno
 Wiatr z PdPdZd
Wiatr: PdPdZd 31 km/h, Poryw: 50 km/h
Temperatura: 15°C
Punkt Rosy: 12°C
Wilgotność: 82%
Ciśnienie: 1017 hPa
Clouds: Przeważnie pochmurno
Visibility: 10 km
Cloud details: Przeważnie pochmurno 457 m
2019/08/22 17:20 ENRY 221720Z 21017G27KT 9999 BKN015 15/12 Q1017
 
ESGP - Goteborg/Save (a, Sweden
Distance from station: Ws 230km
Aktualizacja: 02/01/2017 11:20
NOT Current
Bezchmurnie
Bezchmurnie
 Wiatr z calm
Wiatr: Cisza
Temperatura: -2°C
Punkt Rosy: -4°C
Wilgotność: 86%
Ciśnienie: 1012 hPa
Clouds: Bezchmurnie
Visibility: 10 km
2017/01/02 10:20 ESGP 021020Z AUTO 00000KT 9999 NCD M02/M04 Q1012
EKVJ - Stauning Airport, Denmark
Distance from station: Pd 233km
Aktualizacja: 22/08/2019 15:50
NOT Current
Lekki deszcz, Przeważnie pochmurno
Lekki deszcz, Przeważnie pochmurno
 Wiatr z PdZd
Wiatr: PdZd 28 km/h
Temperatura: 19°C
Punkt Rosy: 16°C
Wilgotność: 83%
Ciśnienie: 1023 hPa
Podsumowanie: Lekki deszcz
Clouds: Przeważnie pochmurno
Visibility: 10 km
Cloud details: Few Clouds 975 m
Przeważnie pochmurno 3658 m
2019/08/22 13:50 EKVJ 221350Z 22015KT 9999 -RA FEW032 BKN120 19/16 Q1023
 
ENSO - Stord/Soerstokke, Norway
Distance from station: PnZd 246km
Aktualizacja: 22/08/2019 19:20
Częściowe zachmurzenie
Częściowe zachmurzenie
 Wiatr z Pd
Wiatr: Pd 22 km/h
Temperatura: 15°C
Punkt Rosy: 10°C
Wilgotność: 72%
Ciśnienie: 1014 hPa
Clouds: Częściowe zachmurzenie
Visibility: 10 km
Cloud details: Częściowe zachmurzenie 1067 m
2019/08/22 17:20 ENSO 221720Z 18012KT 9999 SCT035TCU 15/10 Q1014
EKAH - Tirstrup (civ/Mi, Denmark
Distance from station: PdWs 252km
Aktualizacja: 22/08/2019 19:20
Przeważnie pochmurno
Przeważnie pochmurno
 Wiatr z PdZd
Wiatr: PdZd 11 km/h
Temperatura: 20°C
Punkt Rosy: 11°C
Wilgotność: 56%
Ciśnienie: 1023 hPa
Clouds: Przeważnie pochmurno
Visibility: 10 km
Cloud details: Przeważnie pochmurno 2652 m
Przeważnie pochmurno 3962 m
2019/08/22 17:20 EKAH 221720Z AUTO 23006KT 180V270 9999NDV BKN087/// BKN130/// 20/11 Q1023
 
ESGT - Trollhattan (pvt, Sweden
Distance from station: Ws 255km
Aktualizacja: 22/08/2019 19:20
Deszcz, Pochmurno
Deszcz, Pochmurno
 Wiatr z PdPdZd
Wiatr: PdPdZd 17 km/h
Temperatura: 15°C
Punkt Rosy: 13°C
Wilgotność: 88%
Ciśnienie: 1021 hPa
Podsumowanie: Deszcz
Clouds: Pochmurno
Visibility: 9 km
Cloud details: Częściowe zachmurzenie 91 m
Pochmurno 1341 m
2019/08/22 17:20 ESGT 221720Z 20009KT 9000 RA SCT003 OVC044 15/13 Q1021
ESGG - Goteborg/Landvet, Sweden
Distance from station: Ws 257km
Aktualizacja: 22/08/2019 19:20
Lekki deszcz, Few clouds
Lekki deszcz, Few clouds
 Wiatr z Pd
Wiatr: Pd 26 km/h
Temperatura: 15°C
Punkt Rosy: 11°C
Wilgotność: 77%
Ciśnienie: 1021 hPa
Podsumowanie: Lekki deszcz
Clouds: Few Clouds
Visibility: 10 km
Cloud details: Few Clouds 1372 m
2019/08/22 17:20 ESGG 221720Z 19014KT 9999 -RA FEW045 15/11 Q1021
 
EKBI - Billund Airport, Denmark
Distance from station: PdPdWs 269km
Aktualizacja: 22/08/2019 19:20
Przeważnie pochmurno
Przeważnie pochmurno
 Wiatr z PdZd
Wiatr: PdZd 20 km/h
Temperatura: 18°C
Punkt Rosy: 13°C
Wilgotność: 73%
Ciśnienie: 1023 hPa
Clouds: Przeważnie pochmurno
Visibility: 10 km
Cloud details: Przeważnie pochmurno 2286 m
2019/08/22 17:20 EKBI 221720Z AUTO 22011KT 9999 BKN075/// 18/13 Q1023
EKHN - Horns Rev B Heli, Denmark
Distance from station: Pd 274km
Aktualizacja: 09/08/2016 14:20
NOT Current
Few Clouds
Few Clouds
 Wiatr z ZdPnZd
Wiatr: ZdPnZd 50 km/h, Poryw: 72 km/h
Temperatura: 14°C
Punkt Rosy: 10°C
Wilgotność: 77%
Ciśnienie: 1018 hPa
Clouds: Few Clouds
Visibility: 10 km
Cloud details: Few Clouds 1158 m
Few Clouds 2438 m
2016/08/09 12:20 EKHN 091220Z AUTO 29027G39KT 270V340 9999NDV FEW038/// FEW080/// 14/10 Q1018
 
ESIB - Satenas (swe-Afb, Sweden
Distance from station: Ws 277km
Aktualizacja: 22/08/2019 19:20
Rain showers, Pochmurno
Rain showers, Pochmurno
 Wiatr z ZdPdZa
Wiatr: ZdPdZa 24 km/h
Temperatura: 16°C
Punkt Rosy: 14°C
Wilgotność: 88%
Ciśnienie: 1020 hPa
Podsumowanie: Rain Showers
Clouds: Pochmurno
Visibility: 10 km
Cloud details: Pochmurno 1250 m
2019/08/22 17:20 ESIB 221720Z AUTO 24013KT 9999 SHRA VV041 16/14 Q1020
EKHR - Horns Rev B Heli, Denmark
Distance from station: Pd 282km
Aktualizacja: 04/10/2016 06:20
NOT Current
Bezchmurnie
Bezchmurnie
 Wiatr z Ws
Wiatr: Ws 4 km/h
Temperatura: 11°C
Punkt Rosy: -49°C
Wilgotność: 0%
Ciśnienie: 1038 hPa
Clouds: Bezchmurnie
Visibility: 10 km
2016/10/04 04:20 EKHR 040420Z AUTO 08002KT 9999NDV NCD 11/M49 Q1038